createdAt,value
2022-10-04T00:01:47.768Z,19.10
2022-10-04T00:04:18.296Z,19.10
2022-10-04T00:06:48.251Z,19.10
2022-10-04T00:09:20.726Z,19.20
2022-10-04T00:11:49.475Z,19.10
2022-10-04T00:14:20.967Z,19.10
2022-10-04T00:16:50.193Z,19.10
2022-10-04T00:19:38.427Z,19.10
2022-10-04T00:22:17.502Z,19.00
2022-10-04T00:25:18.803Z,19.00
2022-10-04T00:28:05.882Z,19.00
2022-10-04T00:30:39.177Z,19.00
2022-10-04T00:33:08.191Z,19.00
2022-10-04T00:35:50.537Z,19.00
2022-10-04T00:38:26.253Z,19.00
2022-10-04T00:40:57.392Z,19.00
2022-10-04T00:43:27.286Z,19.00
2022-10-04T00:45:59.673Z,19.00
2022-10-04T00:48:43.712Z,19.10
2022-10-04T00:51:15.237Z,19.10
2022-10-04T00:53:48.764Z,19.10
2022-10-04T00:56:21.574Z,19.10
2022-10-04T00:59:04.728Z,19.10
2022-10-04T01:01:36.443Z,19.10
2022-10-04T01:04:06.633Z,19.00
2022-10-04T01:06:35.837Z,19.00
2022-10-04T01:09:06.378Z,19.00
2022-10-04T01:11:37.942Z,19.00
2022-10-04T01:14:10.296Z,19.00
2022-10-04T01:16:40.180Z,18.90
2022-10-04T01:19:27.445Z,19.00
2022-10-04T01:21:59.856Z,18.90
2022-10-04T01:24:34.905Z,18.90
2022-10-04T01:27:03.660Z,18.80
2022-10-04T01:29:32.813Z,18.80
2022-10-04T01:32:01.911Z,18.70
2022-10-04T01:34:31.229Z,18.70
2022-10-04T01:37:00.623Z,18.60
2022-10-04T01:39:31.134Z,18.60
2022-10-04T01:42:02.152Z,18.50
2022-10-04T01:44:32.919Z,18.50
2022-10-04T01:47:03.149Z,18.40
2022-10-04T01:49:33.210Z,18.40
2022-10-04T01:52:04.445Z,18.40
2022-10-04T01:54:36.095Z,18.50
2022-10-04T01:57:07.801Z,18.50
2022-10-04T01:59:45.023Z,18.50
2022-10-04T02:02:19.678Z,18.50
2022-10-04T02:04:52.759Z,18.40
2022-10-04T02:07:21.964Z,18.50
2022-10-04T02:09:55.481Z,18.40
2022-10-04T02:12:23.995Z,18.40
2022-10-04T02:14:53.759Z,18.50
2022-10-04T02:17:22.948Z,18.60
2022-10-04T02:19:51.737Z,18.60
2022-10-04T02:22:20.459Z,18.50
2022-10-04T02:24:50.122Z,18.50
2022-10-04T02:27:19.964Z,18.50
2022-10-04T02:29:48.351Z,18.60
2022-10-04T02:32:33.867Z,18.60
2022-10-04T02:35:02.616Z,18.50
2022-10-04T02:37:31.251Z,18.50
2022-10-04T02:40:04.229Z,18.60
2022-10-04T02:42:39.463Z,18.60
2022-10-04T02:45:11.263Z,18.60
2022-10-04T02:47:44.462Z,18.50
2022-10-04T02:50:21.261Z,18.50
2022-10-04T02:52:52.277Z,18.50
2022-10-04T02:55:22.128Z,18.50
2022-10-04T02:57:52.579Z,18.50
2022-10-04T03:00:22.560Z,18.50
2022-10-04T03:03:08.598Z,18.60
2022-10-04T03:05:37.669Z,18.60
2022-10-04T03:08:06.411Z,18.60
2022-10-04T03:10:35.572Z,18.60
2022-10-04T03:13:05.680Z,18.60
2022-10-04T03:15:34.065Z,18.50
2022-10-04T03:18:02.516Z,18.50
2022-10-04T03:20:31.025Z,18.60
2022-10-04T03:22:59.441Z,18.50
2022-10-04T03:25:30.445Z,18.50
2022-10-04T03:28:02.009Z,18.50
2022-10-04T03:30:32.448Z,18.50
2022-10-04T03:33:01.014Z,18.50
2022-10-04T03:35:30.620Z,18.50
2022-10-04T03:37:59.726Z,18.50
2022-10-04T03:40:29.942Z,18.50
2022-10-04T03:42:59.327Z,18.40
2022-10-04T03:45:28.568Z,18.40
2022-10-04T03:48:01.328Z,18.40
2022-10-04T03:50:33.689Z,18.40
2022-10-04T03:53:04.466Z,18.40
2022-10-04T03:55:33.751Z,18.30
2022-10-04T03:58:02.670Z,18.30
2022-10-04T04:00:31.224Z,18.30
2022-10-04T04:03:02.648Z,18.20
2022-10-04T04:05:32.971Z,18.20
2022-10-04T04:08:07.873Z,18.20
2022-10-04T04:10:38.774Z,18.10
2022-10-04T04:13:13.071Z,18.20
2022-10-04T04:15:45.663Z,18.20
2022-10-04T04:18:17.501Z,18.20
2022-10-04T04:20:45.963Z,18.20
2022-10-04T04:23:21.250Z,18.20
2022-10-04T04:25:50.478Z,18.20
2022-10-04T04:28:25.064Z,18.20
2022-10-04T04:30:55.902Z,18.20
2022-10-04T04:33:28.682Z,18.20
2022-10-04T04:35:57.554Z,18.20
2022-10-04T04:38:27.464Z,18.10
2022-10-04T04:40:56.171Z,18.00
2022-10-04T04:43:26.670Z,18.00
2022-10-04T04:46:22.173Z,18.00
2022-10-04T04:48:46.283Z,18.00
2022-10-04T04:51:15.877Z,18.00
2022-10-04T04:53:44.282Z,18.00
2022-10-04T04:56:15.229Z,18.00
2022-10-04T04:58:47.720Z,18.00
2022-10-04T05:01:19.739Z,17.90
2022-10-04T05:04:02.367Z,17.80
2022-10-04T05:06:31.588Z,17.80
2022-10-04T05:08:59.979Z,17.80
2022-10-04T05:11:31.154Z,17.90
2022-10-04T05:14:01.269Z,17.90
2022-10-04T05:16:43.215Z,17.90
2022-10-04T05:19:16.461Z,17.90
2022-10-04T05:21:45.625Z,17.90
2022-10-04T05:24:16.416Z,17.90
2022-10-04T05:26:44.899Z,17.90
2022-10-04T05:29:17.309Z,17.90
2022-10-04T05:31:49.113Z,17.80
2022-10-04T05:34:23.136Z,17.90
2022-10-04T05:37:01.390Z,17.90
2022-10-04T05:39:33.353Z,17.90
2022-10-04T05:42:07.869Z,17.80
2022-10-04T05:44:38.132Z,17.70
2022-10-04T05:47:07.474Z,17.70
2022-10-04T05:49:43.992Z,17.70
2022-10-04T05:52:15.274Z,17.70
2022-10-04T05:54:43.856Z,17.70
2022-10-04T05:57:17.617Z,17.80
2022-10-04T05:59:52.345Z,17.80
2022-10-04T06:02:26.849Z,17.90
2022-10-04T06:05:02.690Z,17.90
2022-10-04T06:07:31.801Z,17.90
2022-10-04T06:10:17.859Z,18.00
2022-10-04T06:12:53.384Z,18.00
2022-10-04T06:15:31.690Z,17.90
2022-10-04T06:18:06.617Z,17.90
2022-10-04T06:21:00.825Z,17.90
2022-10-04T06:23:31.238Z,17.80
2022-10-04T06:26:02.812Z,17.90
2022-10-04T06:28:32.808Z,17.90
2022-10-04T06:31:09.964Z,17.90
2022-10-04T06:33:44.327Z,18.00
2022-10-04T06:36:34.266Z,18.00
2022-10-04T06:39:10.202Z,18.10
2022-10-04T06:41:43.944Z,18.10
2022-10-04T06:44:24.033Z,18.10
2022-10-04T06:46:54.229Z,18.00
2022-10-04T06:49:42.531Z,18.00
2022-10-04T06:52:20.287Z,18.10
2022-10-04T06:54:56.802Z,18.10
2022-10-04T06:57:43.032Z,18.10
2022-10-04T07:00:15.129Z,18.20
2022-10-04T07:02:44.837Z,18.20
2022-10-04T07:05:16.669Z,18.20
2022-10-04T07:07:48.501Z,18.20
2022-10-04T07:10:24.903Z,18.20
2022-10-04T07:12:57.528Z,18.20
2022-10-04T07:15:27.981Z,18.30
2022-10-04T07:17:57.612Z,18.40
2022-10-04T07:20:28.192Z,18.40
2022-10-04T07:22:59.982Z,18.40
2022-10-04T07:25:30.702Z,18.40
2022-10-04T07:28:18.877Z,18.40
2022-10-04T07:30:49.747Z,18.50
2022-10-04T07:33:19.772Z,18.60
2022-10-04T07:35:50.068Z,18.70
2022-10-04T07:38:21.532Z,18.70
2022-10-04T07:40:59.396Z,18.80
2022-10-04T07:43:30.017Z,18.90
2022-10-04T07:46:03.680Z,19.00
2022-10-04T07:48:32.100Z,19.10
2022-10-04T07:51:05.289Z,19.20
2022-10-04T07:53:39.537Z,19.50
2022-10-04T07:56:10.141Z,19.80
2022-10-04T07:58:45.931Z,20.20
2022-10-04T08:01:21.092Z,20.50
2022-10-04T08:04:00.428Z,20.90
2022-10-04T08:06:33.509Z,21.20
2022-10-04T08:09:11.587Z,21.50
2022-10-04T08:11:44.619Z,21.80
2022-10-04T08:14:18.710Z,22.10
2022-10-04T08:16:54.024Z,22.30
2022-10-04T08:19:33.369Z,22.50
2022-10-04T08:22:03.665Z,22.60
2022-10-04T08:24:37.507Z,22.80
2022-10-04T08:27:19.979Z,22.80
2022-10-04T08:29:54.386Z,22.60
2022-10-04T08:32:26.874Z,22.70
2022-10-04T08:35:11.609Z,22.80
2022-10-04T08:37:46.855Z,22.80
2022-10-04T08:40:36.325Z,22.70
2022-10-04T08:43:14.707Z,22.70
2022-10-04T08:46:04.130Z,22.60
2022-10-04T08:48:58.900Z,22.80
2022-10-04T08:51:42.314Z,22.80
2022-10-04T08:54:28.749Z,22.80
2022-10-04T08:57:05.488Z,22.50
2022-10-04T08:59:46.679Z,22.40
2022-10-04T09:02:34.766Z,22.40
2022-10-04T09:05:22.014Z,22.40
2022-10-04T09:08:04.447Z,22.40
2022-10-04T09:10:47.677Z,22.30
2022-10-04T09:13:34.166Z,22.20
2022-10-04T09:16:15.304Z,22.30
2022-10-04T09:19:01.431Z,22.20
2022-10-04T09:21:38.670Z,22.00
2022-10-04T09:24:21.974Z,21.90
2022-10-04T09:26:53.415Z,21.90
2022-10-04T09:29:28.253Z,21.90
2022-10-04T09:32:13.634Z,21.80
2022-10-04T09:34:51.573Z,21.80
2022-10-04T09:37:32.797Z,21.80
2022-10-04T09:40:31.535Z,21.40
2022-10-04T09:43:09.899Z,21.50
2022-10-04T09:45:45.428Z,21.50
2022-10-04T09:48:31.363Z,21.50
2022-10-04T09:51:11.758Z,21.40
2022-10-04T09:53:47.133Z,21.40
2022-10-04T09:56:30.340Z,21.50
2022-10-04T09:59:14.766Z,21.50
2022-10-04T10:02:08.651Z,21.40
2022-10-04T10:04:45.324Z,21.50
2022-10-04T10:07:31.296Z,21.60
2022-10-04T10:10:19.663Z,21.60
2022-10-04T10:13:19.341Z,21.40
2022-10-04T10:15:59.622Z,21.20
2022-10-04T10:18:34.187Z,21.40
2022-10-04T10:21:17.481Z,21.20
2022-10-04T10:23:56.257Z,21.30
2022-10-04T10:26:46.991Z,21.40
2022-10-04T10:29:32.665Z,21.30
2022-10-04T10:32:09.437Z,21.30
2022-10-04T10:34:46.797Z,21.40
2022-10-04T10:37:19.007Z,21.30
2022-10-04T10:39:58.521Z,21.30
2022-10-04T10:42:47.565Z,21.30
2022-10-04T10:45:22.568Z,21.30
2022-10-04T10:47:54.822Z,21.40
2022-10-04T10:50:59.830Z,21.30
2022-10-04T10:53:41.459Z,21.30
2022-10-04T10:56:33.492Z,21.30
2022-10-04T10:59:13.637Z,21.20
2022-10-04T11:02:00.100Z,21.30
2022-10-04T11:04:45.693Z,21.40
2022-10-04T11:07:27.388Z,21.40
2022-10-04T11:10:16.611Z,21.40
2022-10-04T11:13:02.669Z,21.40
2022-10-04T11:15:41.517Z,21.40
2022-10-04T11:18:31.134Z,21.30
2022-10-04T11:21:10.420Z,21.40
2022-10-04T11:24:04.594Z,21.50
2022-10-04T11:26:52.118Z,21.40
2022-10-04T11:29:26.527Z,21.40
2022-10-04T11:32:27.903Z,21.50
2022-10-04T11:35:15.029Z,21.50
2022-10-04T11:37:47.589Z,21.50
2022-10-04T11:40:24.757Z,21.40
2022-10-04T11:42:59.568Z,21.40
2022-10-04T11:45:38.365Z,21.50
2022-10-04T11:48:15.055Z,21.50
2022-10-04T11:50:54.733Z,21.30
2022-10-04T11:53:43.583Z,21.30
2022-10-04T11:56:34.169Z,21.20
2022-10-04T11:59:27.576Z,21.10
2022-10-04T12:02:18.014Z,21.40
2022-10-04T12:05:01.327Z,21.20
2022-10-04T12:07:43.750Z,21.20
2022-10-04T12:10:20.916Z,21.30
2022-10-04T12:13:14.294Z,21.30
2022-10-04T12:15:50.498Z,21.20
2022-10-04T12:18:34.507Z,21.30
2022-10-04T12:21:20.586Z,21.40
2022-10-04T12:24:04.286Z,21.30
2022-10-04T12:26:44.786Z,21.20
2022-10-04T12:29:27.715Z,21.20
2022-10-04T12:31:58.967Z,21.30
2022-10-04T12:34:32.099Z,21.20
2022-10-04T12:37:06.438Z,21.20
2022-10-04T12:39:49.594Z,21.20
2022-10-04T12:42:23.144Z,21.20
2022-10-04T12:44:59.139Z,21.20
2022-10-04T12:47:54.493Z,21.20
2022-10-04T12:50:31.210Z,21.20
2022-10-04T12:53:05.152Z,21.20
2022-10-04T12:55:47.056Z,21.10
2022-10-04T12:58:19.971Z,21.10
2022-10-04T13:00:49.474Z,21.20
2022-10-04T13:03:33.782Z,21.30
2022-10-04T13:06:08.449Z,21.10
2022-10-04T13:08:57.660Z,21.20
2022-10-04T13:11:32.564Z,21.10
2022-10-04T13:14:21.208Z,21.10
2022-10-04T13:19:45.819Z,21.00
2022-10-04T13:22:44.020Z,21.10
2022-10-04T13:25:19.238Z,21.00
2022-10-04T13:27:49.444Z,20.90
2022-10-04T13:30:23.438Z,21.00
2022-10-04T13:32:57.447Z,21.10
2022-10-04T13:35:27.685Z,21.00
2022-10-04T13:38:05.298Z,21.00
2022-10-04T13:40:45.736Z,21.20
2022-10-04T13:43:28.949Z,21.10
2022-10-04T13:46:02.779Z,21.20
2022-10-04T13:48:34.675Z,21.10
2022-10-04T13:51:07.246Z,21.10
2022-10-04T13:53:59.070Z,21.20
2022-10-04T13:56:41.684Z,21.10
2022-10-04T13:59:17.413Z,21.00
2022-10-04T14:02:02.585Z,21.00
2022-10-04T14:04:43.833Z,21.00
2022-10-04T14:07:30.156Z,21.00
2022-10-04T14:10:13.405Z,21.00
2022-10-04T14:12:55.073Z,20.90
2022-10-04T14:15:44.174Z,21.00
2022-10-04T14:18:26.931Z,21.00
2022-10-04T14:21:04.731Z,20.80
2022-10-04T14:23:48.517Z,20.80
2022-10-04T14:26:42.688Z,20.80
2022-10-04T14:29:32.009Z,20.90
2022-10-04T14:32:10.101Z,20.80
2022-10-04T14:34:51.273Z,20.80
2022-10-04T14:37:37.917Z,20.80
2022-10-04T14:40:14.146Z,20.80
2022-10-04T14:42:58.310Z,20.90
2022-10-04T14:45:35.329Z,20.90
2022-10-04T14:48:30.729Z,20.90
2022-10-04T14:51:11.682Z,20.90
2022-10-04T14:53:43.663Z,20.80
2022-10-04T14:56:21.039Z,20.90
2022-10-04T14:58:55.313Z,20.80
2022-10-04T15:01:25.329Z,20.70
2022-10-04T15:04:26.116Z,20.70
2022-10-04T15:06:57.808Z,20.60
2022-10-04T15:09:50.072Z,20.60
2022-10-04T15:12:40.669Z,20.60
2022-10-04T15:15:32.131Z,20.60
2022-10-04T15:18:03.496Z,20.50
2022-10-04T15:20:37.545Z,20.60
2022-10-04T15:23:13.447Z,20.50
2022-10-04T15:25:43.545Z,20.60
2022-10-04T15:28:35.257Z,20.60
2022-10-04T15:31:08.385Z,20.50
2022-10-04T15:33:41.045Z,20.40
2022-10-04T15:36:26.207Z,20.50
2022-10-04T15:39:04.560Z,20.40
2022-10-04T15:41:38.202Z,20.30
2022-10-04T15:44:17.023Z,20.30
2022-10-04T15:46:48.387Z,20.30
2022-10-04T15:49:22.730Z,20.30
2022-10-04T15:52:03.537Z,20.30
2022-10-04T15:54:44.409Z,20.20
2022-10-04T15:57:21.570Z,20.20
2022-10-04T15:59:53.726Z,20.30
2022-10-04T16:02:26.742Z,20.30
2022-10-04T16:05:01.796Z,20.30
2022-10-04T16:07:39.888Z,20.30
2022-10-04T16:10:15.736Z,20.30
2022-10-04T16:13:01.499Z,20.10
2022-10-04T16:15:32.840Z,20.10
2022-10-04T16:18:07.757Z,20.10
2022-10-04T16:20:50.973Z,20.10
2022-10-04T16:23:33.384Z,20.10
2022-10-04T16:26:03.583Z,20.00
2022-10-04T16:28:44.743Z,20.00
2022-10-04T16:31:29.503Z,19.90
2022-10-04T16:34:02.434Z,19.90
2022-10-04T16:36:44.135Z,19.90
2022-10-04T16:39:33.516Z,19.90
2022-10-04T16:42:05.401Z,19.90
2022-10-04T16:44:35.800Z,19.90
2022-10-04T16:47:16.960Z,19.90
2022-10-04T16:49:50.866Z,19.90
2022-10-04T16:52:34.109Z,19.90
2022-10-04T16:55:20.172Z,19.80
2022-10-04T16:58:03.394Z,19.90
2022-10-04T17:00:37.914Z,19.90
2022-10-04T17:03:13.051Z,19.90
2022-10-04T17:05:47.527Z,19.80
2022-10-04T17:08:27.668Z,19.80
2022-10-04T17:11:08.449Z,19.80
2022-10-04T17:13:39.254Z,19.80
2022-10-04T17:16:12.925Z,19.80
2022-10-04T17:18:44.967Z,19.80
2022-10-04T17:21:22.133Z,19.80
2022-10-04T17:24:03.500Z,19.80
2022-10-04T17:26:44.055Z,19.80
2022-10-04T17:29:22.125Z,19.80
2022-10-04T17:31:53.484Z,19.80
2022-10-04T17:34:27.926Z,19.80
2022-10-04T17:36:58.044Z,19.80
2022-10-04T17:39:35.005Z,19.80
2022-10-04T17:42:09.846Z,19.80
2022-10-04T17:45:02.109Z,19.70
2022-10-04T17:47:58.496Z,19.80
2022-10-04T17:50:47.714Z,19.70
2022-10-04T17:53:38.111Z,19.70
2022-10-04T17:56:07.845Z,19.70
2022-10-04T17:58:44.027Z,19.70
2022-10-04T18:01:15.294Z,19.70
2022-10-04T18:03:46.564Z,19.60
2022-10-04T18:06:21.209Z,19.60
2022-10-04T18:08:53.487Z,19.60
2022-10-04T18:11:25.916Z,19.60
2022-10-04T18:13:58.309Z,19.60
2022-10-04T18:16:29.672Z,19.50
2022-10-04T18:18:58.902Z,19.50
2022-10-04T18:21:28.601Z,19.50
2022-10-04T18:24:00.953Z,19.40
2022-10-04T18:26:30.624Z,19.40
2022-10-04T18:29:02.007Z,19.30
2022-10-04T18:31:32.268Z,19.30
2022-10-04T18:34:04.361Z,19.20
2022-10-04T18:36:47.121Z,19.20
2022-10-04T18:39:20.549Z,19.20
2022-10-04T18:41:56.837Z,19.10
2022-10-04T18:44:29.721Z,19.10
2022-10-04T18:46:59.525Z,19.00
2022-10-04T18:49:29.582Z,19.00
2022-10-04T18:52:13.388Z,18.90
2022-10-04T18:54:45.604Z,18.90
2022-10-04T18:57:21.492Z,18.80
2022-10-04T19:00:12.749Z,18.80
2022-10-04T19:02:48.234Z,18.80
2022-10-04T19:05:19.584Z,18.70
2022-10-04T19:07:52.729Z,18.70
2022-10-04T19:10:26.136Z,18.70
2022-10-04T19:13:02.729Z,18.70
2022-10-04T19:15:42.714Z,18.70
2022-10-04T19:18:21.801Z,18.60
2022-10-04T19:20:53.053Z,18.60
2022-10-04T19:23:26.800Z,18.60
2022-10-04T19:26:29.910Z,18.50
2022-10-04T19:28:51.379Z,18.40
2022-10-04T19:31:24.500Z,18.30
2022-10-04T19:33:56.282Z,18.30
2022-10-04T19:36:45.624Z,18.30
2022-10-04T19:39:30.393Z,18.20
2022-10-04T19:42:00.621Z,18.20
2022-10-04T19:44:33.318Z,18.10
2022-10-04T19:47:05.925Z,18.10
2022-10-04T19:49:40.567Z,18.10
2022-10-04T19:52:22.113Z,18.10
2022-10-04T19:54:53.864Z,18.10
2022-10-04T19:57:28.190Z,18.10
2022-10-04T19:59:56.735Z,18.20
2022-10-04T20:02:26.621Z,18.20
2022-10-04T20:04:55.091Z,18.10
2022-10-04T20:07:25.199Z,18.00
2022-10-04T20:09:55.117Z,18.00
2022-10-04T20:12:32.693Z,18.00
2022-10-04T20:15:30.942Z,17.90
2022-10-04T20:18:01.474Z,17.90
2022-10-04T20:20:48.338Z,17.90
2022-10-04T20:23:36.991Z,17.90
2022-10-04T20:26:06.412Z,17.80
2022-10-04T20:28:40.293Z,17.80
2022-10-04T20:31:09.235Z,17.80
2022-10-04T20:33:49.472Z,17.80
2022-10-04T20:36:36.418Z,17.80
2022-10-04T20:39:06.312Z,17.70
2022-10-04T20:42:02.065Z,17.70
2022-10-04T20:44:57.259Z,17.70
2022-10-04T20:47:38.055Z,17.70
2022-10-04T20:50:14.406Z,17.70
2022-10-04T20:52:45.414Z,17.60
2022-10-04T20:55:18.465Z,17.70
2022-10-04T20:57:46.933Z,17.70
2022-10-04T21:00:19.522Z,17.70
2022-10-04T21:02:48.345Z,17.70
2022-10-04T21:05:23.455Z,17.70
2022-10-04T21:08:11.899Z,17.70
2022-10-04T21:10:40.281Z,17.70
2022-10-04T21:13:28.923Z,17.70
2022-10-04T21:15:58.741Z,17.70
2022-10-04T21:18:27.185Z,17.70
2022-10-04T21:20:55.600Z,17.60
2022-10-04T21:23:30.266Z,17.60
2022-10-04T21:26:13.573Z,17.60
2022-10-04T21:28:42.013Z,17.60
2022-10-04T21:31:11.756Z,17.60
2022-10-04T21:33:40.085Z,17.60
2022-10-04T21:36:11.530Z,17.60
2022-10-04T21:38:39.917Z,17.60
2022-10-04T21:41:08.603Z,17.60
2022-10-04T21:43:37.155Z,17.60
2022-10-04T21:46:05.819Z,17.60
2022-10-04T21:48:35.709Z,17.50
2022-10-04T21:51:04.129Z,17.50
2022-10-04T21:53:32.498Z,17.50
2022-10-04T21:56:00.852Z,17.40
2022-10-04T21:58:29.224Z,17.40
2022-10-04T22:00:57.722Z,17.30
2022-10-04T22:03:26.184Z,17.30
2022-10-04T22:05:55.954Z,17.30
2022-10-04T22:08:24.505Z,17.30
2022-10-04T22:10:57.443Z,17.30
2022-10-04T22:13:26.982Z,17.30
2022-10-04T22:15:55.293Z,17.30
2022-10-04T22:18:23.737Z,17.30
2022-10-04T22:20:52.428Z,17.40
2022-10-04T22:23:22.937Z,17.40
2022-10-04T22:25:51.648Z,17.50
2022-10-04T22:28:23.889Z,17.50
2022-10-04T22:30:53.403Z,17.60
2022-10-04T22:33:28.288Z,17.50
2022-10-04T22:35:57.874Z,17.50
2022-10-04T22:38:27.638Z,17.50
2022-10-04T22:40:56.055Z,17.50
2022-10-04T22:43:24.473Z,17.60
2022-10-04T22:45:53.297Z,17.60
2022-10-04T22:48:21.842Z,17.70
2022-10-04T22:50:51.010Z,17.70
2022-10-04T22:53:21.625Z,17.70
2022-10-04T22:55:51.899Z,17.70
2022-10-04T22:58:21.118Z,17.70
2022-10-04T23:00:50.519Z,17.70
2022-10-04T23:03:25.679Z,17.60
2022-10-04T23:05:54.140Z,17.70
2022-10-04T23:08:22.581Z,17.80
2022-10-04T23:10:55.692Z,17.70
2022-10-04T23:13:24.922Z,17.70
2022-10-04T23:15:53.813Z,17.60
2022-10-04T23:18:22.246Z,17.60
2022-10-04T23:20:53.253Z,17.50
2022-10-04T23:23:22.302Z,17.50
2022-10-04T23:25:50.970Z,17.40
2022-10-04T23:28:20.789Z,17.30
2022-10-04T23:30:56.930Z,17.30
2022-10-04T23:33:25.397Z,17.20
2022-10-04T23:35:54.930Z,17.10
2022-10-04T23:38:24.451Z,17.10
2022-10-04T23:40:52.874Z,17.10
2022-10-04T23:43:25.139Z,17.00
2022-10-04T23:45:54.477Z,16.90
2022-10-04T23:48:23.835Z,16.90
2022-10-04T23:50:52.927Z,17.00
2022-10-04T23:53:24.228Z,17.00
2022-10-04T23:55:52.630Z,17.00
2022-10-04T23:58:23.495Z,17.00
